Time;durP1;ratioP1;P1;durP2;ratioP2;P2;SDS_P1;SDS_P2;PMS_P1;PMS_P2;Temp;Humidity;BMP_temperature;BMP_pressure;BME280_temperature;BME280_humidity;BME280_pressure;Samples;Min_cycle;Max_cycle;Signal;HPM_P1;HPM_P2
2021/01/30 00:00:52;;;;;;;;;;;3.50;96.80;;;;;;5071526;28;19935;-71
2021/01/30 00:03:18;;;;;;;;;;;3.60;97.20;;;;;;5071532;28;20015;-71
2021/01/30 00:05:44;;;;;;;;;;;3.50;97.30;;;;;;5066649;28;20023;-71
2021/01/30 00:08:11;;;;;;;;;;;3.50;97.00;;;;;;5073030;28;19985;-71
2021/01/30 00:10:37;;;;;;;;;;;3.50;97.10;;;;;;5072608;28;20011;-71
2021/01/30 00:13:04;;;;;;;;;;;3.50;97.00;;;;;;5073126;28;20015;-71
2021/01/30 00:15:30;;;;;;;;;;;3.40;97.10;;;;;;5072388;28;20321;-71
2021/01/30 00:17:58;;;;;;;;;;;3.40;97.30;;;;;;5072915;28;20415;-71
2021/01/30 00:20:26;;;;;;;;;;;3.40;97.40;;;;;;5072437;28;19928;-71
2021/01/30 00:22:52;;;;;;;;;;;3.50;97.60;;;;;;5072698;28;20718;-70
2021/01/30 00:25:19;;;;;;;;;;;3.50;97.60;;;;;;5072730;28;20015;-70
2021/01/30 00:27:45;;;;;;;;;;;3.60;97.50;;;;;;5072391;28;20058;-71
2021/01/30 00:30:14;;;;;;;;;;;3.60;97.10;;;;;;5072593;28;19935;-70
2021/01/30 00:32:40;;;;;;;;;;;3.60;97.10;;;;;;5072358;28;20011;-71
2021/01/30 00:35:08;;;;;;;;;;;3.60;97.10;;;;;;5072396;28;19934;-72
2021/01/30 00:37:34;;;;;;;;;;;3.60;97.30;;;;;;5072041;28;20018;-72
2021/01/30 00:40:00;;;;;;;;;;;3.60;97.30;;;;;;5072722;28;20011;-70
2021/01/30 00:42:27;;;;;;;;;;;3.60;97.50;;;;;;5072401;28;19924;-70
2021/01/30 00:44:53;;;;;;;;;;;3.60;97.30;;;;;;5072773;28;19946;-72
2021/01/30 00:47:20;;;;;;;;;;;3.60;97.50;;;;;;5076708;28;20001;-72
2021/01/30 00:49:47;;;;;;;;;;;3.60;97.20;;;;;;5076175;28;19924;-72
2021/01/30 00:52:15;;;;;;;;;;;3.60;97.10;;;;;;5076699;28;19960;-72
2021/01/30 00:54:41;;;;;;;;;;;3.50;97.00;;;;;;5074318;28;19999;-70
2021/01/30 00:57:08;;;;;;;;;;;3.60;97.20;;;;;;5076471;28;19924;-70
2021/01/30 00:59:34;;;;;;;;;;;3.60;97.50;;;;;;5076174;28;20011;-70
2021/01/30 01:02:00;;;;;;;;;;;3.60;97.60;;;;;;5072826;28;20011;-70
2021/01/30 01:04:26;;;;;;;;;;;3.60;97.70;;;;;;5075358;28;20406;-70
2021/01/30 01:06:53;;;;;;;;;;;3.60;97.80;;;;;;5075753;28;20071;-72
2021/01/30 01:09:20;;;;;;;;;;;3.60;97.60;;;;;;5076175;28;19938;-72
2021/01/30 01:11:47;;;;;;;;;;;3.70;97.60;;;;;;5076121;28;19935;-72
2021/01/30 01:14:13;;;;;;;;;;;3.70;97.60;;;;;;5076354;28;19935;-72
2021/01/30 01:16:40;;;;;;;;;;;3.70;97.50;;;;;;5075725;28;20007;-72
2021/01/30 01:19:06;;;;;;;;;;;3.70;97.60;;;;;;5076231;28;20380;-72
2021/01/30 01:21:32;;;;;;;;;;;3.70;97.60;;;;;;5075419;28;19925;-72
2021/01/30 01:23:59;;;;;;;;;;;3.70;97.50;;;;;;5075984;28;19935;-72
2021/01/30 01:26:26;;;;;;;;;;;3.60;97.40;;;;;;5075990;28;20023;-71
2021/01/30 01:28:52;;;;;;;;;;;3.60;97.50;;;;;;5075556;28;19942;-72
2021/01/30 01:31:19;;;;;;;;;;;3.70;97.40;;;;;;5075977;28;20028;-72
2021/01/30 01:33:46;;;;;;;;;;;3.70;97.40;;;;;;5075386;28;19967;-72
2021/01/30 01:36:12;;;;;;;;;;;3.60;97.30;;;;;;5070440;28;19945;-72
2021/01/30 01:38:39;;;;;;;;;;;3.60;97.40;;;;;;5075411;28;20011;-72
2021/01/30 01:41:05;;;;;;;;;;;3.60;97.50;;;;;;5075614;28;19973;-72
2021/01/30 01:43:32;;;;;;;;;;;3.60;97.50;;;;;;5075638;28;19924;-72
2021/01/30 01:46:13;;;;;;;;;;;3.60;97.50;;;;;;5075487;28;20011;-72
2021/01/30 01:48:42;;;;;;;;;;;3.60;97.40;;;;;;5063178;28;19925;-72
2021/01/30 01:51:12;;;;;;;;;;;3.60;97.30;;;;;;5075211;28;19952;-72
2021/01/30 01:53:41;;;;;;;;;;;3.60;97.40;;;;;;5074991;28;20015;-72
2021/01/30 01:56:09;;;;;;;;;;;3.60;97.30;;;;;;5072300;28;19936;-72
2021/01/30 01:58:37;;;;;;;;;;;3.60;97.30;;;;;;5065071;28;19956;-72
2021/01/30 02:01:04;;;;;;;;;;;3.60;97.00;;;;;;5068175;28;19925;-72
2021/01/30 02:03:31;;;;;;;;;;;3.60;97.00;;;;;;5065812;28;19935;-72
2021/01/30 02:05:58;;;;;;;;;;;3.60;97.00;;;;;;5074137;28;19981;-72
2021/01/30 02:08:25;;;;;;;;;;;3.60;96.90;;;;;;5075448;28;20142;-72
2021/01/30 02:10:52;;;;;;;;;;;3.60;96.80;;;;;;5074776;28;19977;-72
2021/01/30 02:13:20;;;;;;;;;;;3.60;96.70;;;;;;5075158;28;20019;-72
2021/01/30 02:15:49;;;;;;;;;;;3.60;96.70;;;;;;5074616;28;20012;-72
2021/01/30 02:18:24;;;;;;;;;;;3.50;96.70;;;;;;5075253;28;20430;-72
2021/01/30 02:21:14;;;;;;;;;;;3.50;96.70;;;;;;5061179;28;20023;-72
2021/01/30 02:24:04;;;;;;;;;;;3.50;96.80;;;;;;5074613;28;20015;-72
2021/01/30 02:26:55;;;;;;;;;;;3.50;96.80;;;;;;5074833;28;19932;-72
2021/01/30 02:29:42;;;;;;;;;;;3.50;96.70;;;;;;5064405;28;20011;-72
2021/01/30 02:32:18;;;;;;;;;;;3.40;97.00;;;;;;5069792;28;19934;-72
2021/01/30 02:34:53;;;;;;;;;;;3.40;97.10;;;;;;5068162;28;20011;-72
2021/01/30 02:37:21;;;;;;;;;;;3.40;97.10;;;;;;5072471;28;20012;-72
2021/01/30 02:39:50;;;;;;;;;;;3.40;97.00;;;;;;5074779;28;20665;-72
2021/01/30 02:42:18;;;;;;;;;;;3.30;97.20;;;;;;5074647;28;19993;-72
2021/01/30 02:44:48;;;;;;;;;;;3.30;97.50;;;;;;5074296;28;20019;-72
2021/01/30 02:47:17;;;;;;;;;;;3.20;97.60;;;;;;5074440;28;20178;-72
2021/01/30 02:49:46;;;;;;;;;;;3.30;97.80;;;;;;5073978;28;20369;-72
2021/01/30 02:52:14;;;;;;;;;;;3.30;97.60;;;;;;5074342;28;19995;-72
2021/01/30 02:54:41;;;;;;;;;;;3.30;97.40;;;;;;5072188;28;20003;-72
2021/01/30 02:57:09;;;;;;;;;;;3.30;97.50;;;;;;5071634;28;19981;-72
2021/01/30 02:59:39;;;;;;;;;;;3.30;97.50;;;;;;5073848;28;19944;-72
2021/01/30 03:02:05;;;;;;;;;;;3.30;97.50;;;;;;5067635;28;19935;-72
2021/01/30 03:04:34;;;;;;;;;;;3.30;97.70;;;;;;5068629;28;19985;-72
2021/01/30 03:07:11;;;;;;;;;;;3.20;97.80;;;;;;5072030;28;19925;-72
2021/01/30 03:09:40;;;;;;;;;;;3.30;97.90;;;;;;5072018;28;19925;-71
2021/01/30 03:12:11;;;;;;;;;;;3.30;97.80;;;;;;5072733;28;19925;-72
2021/01/30 03:14:41;;;;;;;;;;;3.30;97.90;;;;;;5072736;28;20015;-72
2021/01/30 03:17:08;;;;;;;;;;;3.30;98.10;;;;;;5072944;28;20015;-72
2021/01/30 03:19:34;;;;;;;;;;;3.30;97.90;;;;;;5072694;28;20403;-72
2021/01/30 03:22:02;;;;;;;;;;;3.40;97.80;;;;;;5073410;28;20007;-72
2021/01/30 03:24:29;;;;;;;;;;;3.30;97.70;;;;;;5060113;28;20400;-72
2021/01/30 03:26:56;;;;;;;;;;;3.30;97.70;;;;;;5073736;28;20004;-72
2021/01/30 03:29:23;;;;;;;;;;;3.40;97.60;;;;;;5073677;28;19935;-72
2021/01/30 03:31:49;;;;;;;;;;;3.40;97.70;;;;;;5073237;28;19989;-72
2021/01/30 03:34:16;;;;;;;;;;;3.40;97.80;;;;;;5073728;28;20297;-72
2021/01/30 03:36:42;;;;;;;;;;;3.40;97.90;;;;;;5072957;28;20182;-72
2021/01/30 03:39:10;;;;;;;;;;;3.40;98.10;;;;;;5073528;28;19924;-72
2021/01/30 03:41:36;;;;;;;;;;;3.40;98.00;;;;;;5068546;28;20011;-72
2021/01/30 03:44:03;;;;;;;;;;;3.40;97.80;;;;;;5073089;28;20362;-72
2021/01/30 03:46:30;;;;;;;;;;;3.40;97.70;;;;;;5073036;28;20469;-72
2021/01/30 03:48:56;;;;;;;;;;;3.50;97.80;;;;;;5071982;28;19940;-72
2021/01/30 03:51:22;;;;;;;;;;;3.50;97.80;;;;;;5073121;28;19947;-72
2021/01/30 03:53:48;;;;;;;;;;;3.50;97.60;;;;;;5072785;28;19933;-72
2021/01/30 03:56:15;;;;;;;;;;;3.50;97.70;;;;;;5076564;28;19932;-72
2021/01/30 03:58:44;;;;;;;;;;;3.50;97.80;;;;;;5072289;28;20288;-72
2021/01/30 04:01:10;;;;;;;;;;;3.50;97.80;;;;;;5069309;28;19924;-72
2021/01/30 04:03:37;;;;;;;;;;;3.60;97.80;;;;;;5072888;28;20318;-72
2021/01/30 04:06:03;;;;;;;;;;;3.60;97.80;;;;;;5068167;28;19935;-72
2021/01/30 04:08:30;;;;;;;;;;;3.60;97.70;;;;;;5072918;28;20019;-72
2021/01/30 04:10:56;;;;;;;;;;;3.60;97.80;;;;;;5072888;28;19932;-72
2021/01/30 04:13:22;;;;;;;;;;;3.60;97.90;;;;;;5073161;28;19935;-72
2021/01/30 04:15:48;;;;;;;;;;;3.60;97.90;;;;;;5072347;28;19964;-72
2021/01/30 04:18:15;;;;;;;;;;;3.70;97.90;;;;;;5072985;28;19939;-73
2021/01/30 04:20:42;;;;;;;;;;;3.70;97.90;;;;;;5072313;28;20007;-72
2021/01/30 04:23:10;;;;;;;;;;;3.70;98.00;;;;;;5073009;28;19924;-72
2021/01/30 04:25:36;;;;;;;;;;;3.70;98.20;;;;;;5072327;28;19935;-72
2021/01/30 04:28:03;;;;;;;;;;;3.70;98.10;;;;;;5073205;28;20315;-72
2021/01/30 04:30:30;;;;;;;;;;;3.80;98.30;;;;;;5072601;28;19928;-72
2021/01/30 04:32:57;;;;;;;;;;;3.80;98.30;;;;;;5072807;28;19928;-72
2021/01/30 04:35:25;;;;;;;;;;;3.80;98.10;;;;;;5072695;28;20016;-72
2021/01/30 04:37:52;;;;;;;;;;;3.90;98.00;;;;;;5072435;28;20007;-72
2021/01/30 04:40:22;;;;;;;;;;;3.90;97.90;;;;;;5072391;28;20011;-72
2021/01/30 04:42:51;;;;;;;;;;;3.90;98.00;;;;;;5071087;28;19925;-72
2021/01/30 04:45:22;;;;;;;;;;;3.90;98.10;;;;;;5072826;28;20350;-72
2021/01/30 04:47:51;;;;;;;;;;;3.90;98.20;;;;;;5072332;28;19993;-72
2021/01/30 04:50:23;;;;;;;;;;;3.90;98.20;;;;;;5072543;28;20018;-72
2021/01/30 04:52:55;;;;;;;;;;;3.90;98.30;;;;;;5072241;28;20077;-72
2021/01/30 04:55:29;;;;;;;;;;;3.90;98.00;;;;;;5072754;28;20079;-72
2021/01/30 04:58:00;;;;;;;;;;;3.90;97.80;;;;;;5072422;28;20422;-72
2021/01/30 05:00:39;;;;;;;;;;;3.90;98.00;;;;;;5072824;28;19981;-72
2021/01/30 05:03:16;;;;;;;;;;;3.90;98.00;;;;;;5072460;28;19932;-72
2021/01/30 05:05:43;;;;;;;;;;;4.00;97.90;;;;;;5072072;28;19925;-72
2021/01/30 05:08:12;;;;;;;;;;;3.90;97.90;;;;;;5072604;28;19999;-70
2021/01/30 05:10:42;;;;;;;;;;;3.90;97.80;;;;;;5072814;28;20007;-72
2021/01/30 05:13:09;;;;;;;;;;;3.90;97.90;;;;;;5072222;28;19925;-73
2021/01/30 05:15:38;;;;;;;;;;;3.90;98.10;;;;;;5072488;28;20423;-73
2021/01/30 05:18:06;;;;;;;;;;;3.90;98.20;;;;;;5072264;28;19985;-73
2021/01/30 05:20:34;;;;;;;;;;;3.90;98.30;;;;;;5072432;28;20014;-72
2021/01/30 05:23:01;;;;;;;;;;;3.80;98.40;;;;;;5072016;28;20054;-72
2021/01/30 05:25:27;;;;;;;;;;;3.80;98.50;;;;;;5072400;28;19924;-72
2021/01/30 05:28:09;;;;;;;;;;;3.80;98.60;;;;;;5072149;28;19925;-72
2021/01/30 05:30:40;;;;;;;;;;;3.90;98.80;;;;;;5072451;28;20263;-72
2021/01/30 05:33:13;;;;;;;;;;;3.90;98.90;;;;;;5075673;28;20019;-72
2021/01/30 05:35:45;;;;;;;;;;;3.90;98.70;;;;;;5076017;28;19935;-72
2021/01/30 05:38:15;;;;;;;;;;;3.80;98.70;;;;;;5076034;28;20278;-72
2021/01/30 05:40:44;;;;;;;;;;;3.80;98.60;;;;;;5075847;28;19924;-73
2021/01/30 05:43:17;;;;;;;;;;;3.80;98.60;;;;;;5075372;28;19930;-72
2021/01/30 05:45:45;;;;;;;;;;;3.90;98.80;;;;;;5075931;28;20019;-72
2021/01/30 05:48:12;;;;;;;;;;;3.90;99.00;;;;;;5075481;28;19924;-72
2021/01/30 05:50:41;;;;;;;;;;;3.90;99.20;;;;;;5075619;28;20011;-72
2021/01/30 05:53:09;;;;;;;;;;;3.80;99.30;;;;;;5075363;28;19932;-72
2021/01/30 05:55:35;;;;;;;;;;;3.80;99.30;;;;;;5075626;28;19993;-72
2021/01/30 05:58:04;;;;;;;;;;;3.80;99.20;;;;;;5075334;28;19931;-72
2021/01/30 06:00:31;;;;;;;;;;;3.80;99.00;;;;;;5075736;28;19925;-72
2021/01/30 06:03:06;;;;;;;;;;;3.80;99.10;;;;;;5075051;28;19928;-72
2021/01/30 06:05:33;;;;;;;;;;;3.80;99.30;;;;;;5075364;28;20434;-72
2021/01/30 06:08:10;;;;;;;;;;;3.80;99.30;;;;;;5075247;28;19981;-72
2021/01/30 06:10:37;;;;;;;;;;;3.80;99.30;;;;;;5075457;28;19985;-72
2021/01/30 06:13:06;;;;;;;;;;;3.80;99.30;;;;;;5074997;28;19925;-73
2021/01/30 06:15:35;;;;;;;;;;;3.80;99.30;;;;;;5075370;28;19924;-72
2021/01/30 06:18:14;;;;;;;;;;;3.80;99.30;;;;;;5075161;28;20332;-72
2021/01/30 06:20:41;;;;;;;;;;;3.80;99.20;;;;;;5075191;28;19935;-72
2021/01/30 06:23:09;;;;;;;;;;;3.80;99.10;;;;;;5074734;28;20011;-72
2021/01/30 06:25:36;;;;;;;;;;;3.80;99.20;;;;;;5075339;28;19928;-73
2021/01/30 06:28:05;;;;;;;;;;;3.90;99.40;;;;;;5074747;28;20015;-72
2021/01/30 06:30:35;;;;;;;;;;;3.80;99.30;;;;;;5075139;28;20074;-73
2021/01/30 06:33:03;;;;;;;;;;;3.90;99.70;;;;;;5074885;28;20011;-73
2021/01/30 06:35:32;;;;;;;;;;;3.90;99.40;;;;;;5074905;28;20015;-73
2021/01/30 06:38:04;;;;;;;;;;;3.90;99.30;;;;;;5074537;28;20015;-71
2021/01/30 06:40:31;;;;;;;;;;;3.90;99.00;;;;;;5075117;28;20261;-71
2021/01/30 06:43:03;;;;;;;;;;;4.00;99.10;;;;;;5073194;28;19935;-71
2021/01/30 06:45:32;;;;;;;;;;;4.00;99.10;;;;;;5074807;28;20011;-71
2021/01/30 06:47:58;;;;;;;;;;;3.90;98.90;;;;;;5074456;28;20027;-71
2021/01/30 06:50:33;;;;;;;;;;;4.00;99.00;;;;;;5074494;28;20008;-71
2021/01/30 06:53:13;;;;;;;;;;;4.00;99.00;;;;;;5074233;28;20003;-71
2021/01/30 06:55:39;;;;;;;;;;;4.00;99.10;;;;;;5074729;28;20003;-71
2021/01/30 06:58:06;;;;;;;;;;;4.00;98.90;;;;;;5074307;28;20032;-71
2021/01/30 07:00:33;;;;;;;;;;;4.00;98.90;;;;;;5074439;28;20015;-71
2021/01/30 07:03:12;;;;;;;;;;;4.00;99.00;;;;;;5073973;28;20274;-71
2021/01/30 07:05:46;;;;;;;;;;;4.10;98.90;;;;;;5074272;28;19931;-71
2021/01/30 07:08:30;;;;;;;;;;;4.00;98.70;;;;;;5074157;28;19924;-71
2021/01/30 07:11:02;;;;;;;;;;;4.00;98.80;;;;;;5073900;28;19925;-71
2021/01/30 07:13:40;;;;;;;;;;;4.10;98.50;;;;;;5074325;28;20019;-71
2021/01/30 07:16:11;;;;;;;;;;;4.10;98.30;;;;;;5073822;28;19934;-71
2021/01/30 07:18:44;;;;;;;;;;;4.10;98.00;;;;;;5074321;28;20019;-71
2021/01/30 07:21:15;;;;;;;;;;;4.10;97.80;;;;;;5073551;28;19934;-71
2021/01/30 07:23:44;;;;;;;;;;;4.10;97.80;;;;;;5074264;28;20015;-71
2021/01/30 07:26:14;;;;;;;;;;;4.10;97.60;;;;;;5073548;28;20010;-71
2021/01/30 07:28:43;;;;;;;;;;;4.00;97.60;;;;;;5074135;28;19935;-71
2021/01/30 07:31:11;;;;;;;;;;;4.00;97.80;;;;;;5073559;28;20110;-71
2021/01/30 07:33:50;;;;;;;;;;;4.00;98.40;;;;;;5073892;28;19978;-71
2021/01/30 07:36:19;;;;;;;;;;;4.00;98.10;;;;;;5073081;28;19930;-71
2021/01/30 07:38:48;;;;;;;;;;;4.00;98.30;;;;;;5073876;28;19934;-71
2021/01/30 07:41:18;;;;;;;;;;;4.10;98.30;;;;;;5073126;28;20003;-71
2021/01/30 07:43:49;;;;;;;;;;;4.10;98.20;;;;;;5073649;28;20011;-71
2021/01/30 07:46:18;;;;;;;;;;;4.10;98.30;;;;;;5073138;28;20027;-71
2021/01/30 07:48:46;;;;;;;;;;;4.10;98.60;;;;;;5073593;28;19931;-71
2021/01/30 07:51:18;;;;;;;;;;;4.20;98.40;;;;;;5072837;28;20415;-71
2021/01/30 07:53:46;;;;;;;;;;;4.20;98.50;;;;;;5073248;28;19981;-71
2021/01/30 07:56:25;;;;;;;;;;;4.30;98.60;;;;;;5072966;28;19935;-71
2021/01/30 07:58:56;;;;;;;;;;;4.30;98.60;;;;;;5073454;28;19925;-71
2021/01/30 08:01:29;;;;;;;;;;;4.30;98.70;;;;;;5072944;28;20031;-71
2021/01/30 08:04:12;;;;;;;;;;;4.40;98.70;;;;;;5073382;28;20180;-71
2021/01/30 08:06:41;;;;;;;;;;;4.40;98.80;;;;;;5073272;28;19981;-71
2021/01/30 08:09:15;;;;;;;;;;;4.40;98.80;;;;;;5073617;28;20019;-71
2021/01/30 08:11:42;;;;;;;;;;;4.50;98.90;;;;;;5072773;28;20438;-71
2021/01/30 08:14:19;;;;;;;;;;;4.50;98.80;;;;;;5073237;28;19931;-71
2021/01/30 08:16:49;;;;;;;;;;;4.60;98.90;;;;;;5072754;28;19928;-71
2021/01/30 08:19:17;;;;;;;;;;;4.60;98.70;;;;;;5073198;28;20007;-71
2021/01/30 08:21:47;;;;;;;;;;;4.60;98.80;;;;;;5072509;28;19924;-71
2021/01/30 08:24:20;;;;;;;;;;;4.60;98.70;;;;;;5073210;28;20007;-71
2021/01/30 08:26:51;;;;;;;;;;;4.60;98.90;;;;;;5072568;28;19999;-71
2021/01/30 08:29:21;;;;;;;;;;;4.60;98.90;;;;;;5073144;28;19925;-71
2021/01/30 08:31:48;;;;;;;;;;;4.70;99.00;;;;;;5072420;28;20042;-71
2021/01/30 08:34:29;;;;;;;;;;;4.70;98.80;;;;;;5073157;28;20021;-71
2021/01/30 08:36:56;;;;;;;;;;;4.70;98.90;;;;;;5072422;28;19981;-71
2021/01/30 08:39:25;;;;;;;;;;;4.70;98.60;;;;;;5072925;28;19935;-71
2021/01/30 08:41:53;;;;;;;;;;;4.70;98.80;;;;;;5072317;28;20019;-71
2021/01/30 08:44:26;;;;;;;;;;;4.70;98.90;;;;;;5072977;28;20007;-71
2021/01/30 08:47:04;;;;;;;;;;;4.80;99.00;;;;;;5072273;28;20011;-71
2021/01/30 08:49:33;;;;;;;;;;;4.80;99.00;;;;;;5072663;28;20003;-71
2021/01/30 08:52:20;;;;;;;;;;;4.80;98.60;;;;;;5072120;28;20332;-73
2021/01/30 08:54:47;;;;;;;;;;;4.80;98.50;;;;;;5072477;28;19939;-72
2021/01/30 08:57:32;;;;;;;;;;;4.90;98.70;;;;;;5072590;28;19953;-73
2021/01/30 08:59:59;;;;;;;;;;;4.90;98.90;;;;;;5072302;28;20015;-73
2021/01/30 09:02:44;;;;;;;;;;;4.90;98.70;;;;;;5072737;28;20317;-70
2021/01/30 09:05:11;;;;;;;;;;;5.00;98.50;;;;;;5072229;28;20015;-71
2021/01/30 09:07:39;;;;;;;;;;;5.00;98.70;;;;;;5076127;28;20019;-72
2021/01/30 09:10:26;;;;;;;;;;;5.00;98.70;;;;;;5076122;28;19938;-72
2021/01/30 09:12:54;;;;;;;;;;;5.00;98.90;;;;;;5076025;28;19924;-72
2021/01/30 09:15:39;;;;;;;;;;;5.00;99.00;;;;;;5076449;28;19925;-72
2021/01/30 09:18:07;;;;;;;;;;;5.00;99.20;;;;;;5075871;28;19929;-71
2021/01/30 09:20:36;;;;;;;;;;;5.10;99.30;;;;;;5076320;28;19931;-71
2021/01/30 09:23:20;;;;;;;;;;;5.10;99.40;;;;;;5075760;28;19936;-72
2021/01/30 09:25:52;;;;;;;;;;;5.10;99.40;;;;;;5076132;28;19971;-72
2021/01/30 09:28:19;;;;;;;;;;;5.10;99.40;;;;;;5075842;28;20742;-72
2021/01/30 09:30:50;;;;;;;;;;;5.10;99.40;;;;;;5076131;28;20062;-71
2021/01/30 09:33:18;;;;;;;;;;;5.20;99.60;;;;;;5075665;28;20028;-72
2021/01/30 09:35:45;;;;;;;;;;;5.20;99.30;;;;;;5075886;28;19985;-72
2021/01/30 09:38:18;;;;;;;;;;;5.20;99.40;;;;;;5075853;28;20295;-72
2021/01/30 09:40:45;;;;;;;;;;;5.20;99.40;;;;;;5076077;28;20400;-72
2021/01/30 09:43:12;;;;;;;;;;;5.20;99.30;;;;;;5075326;28;19955;-72
2021/01/30 09:45:39;;;;;;;;;;;5.20;99.20;;;;;;5075977;28;19964;-72
2021/01/30 09:48:08;;;;;;;;;;;5.20;99.20;;;;;;5075345;28;20014;-72
2021/01/30 09:50:38;;;;;;;;;;;5.20;99.00;;;;;;5075550;28;20416;-72
2021/01/30 09:53:07;;;;;;;;;;;5.20;98.90;;;;;;5075384;28;19924;-72
2021/01/30 09:55:38;;;;;;;;;;;5.20;98.90;;;;;;5075726;28;20248;-71
2021/01/30 09:58:07;;;;;;;;;;;5.30;99.00;;;;;;5075472;28;20325;-71
2021/01/30 10:00:35;;;;;;;;;;;5.30;98.60;;;;;;5075665;28;20007;-71
2021/01/30 10:03:09;;;;;;;;;;;5.30;98.80;;;;;;5075197;28;19993;-71
2021/01/30 10:05:36;;;;;;;;;;;5.30;98.80;;;;;;5075430;28;20023;-71
2021/01/30 10:08:13;;;;;;;;;;;5.40;98.80;;;;;;5074944;28;20423;-71
2021/01/30 10:10:39;;;;;;;;;;;5.40;98.50;;;;;;5075509;28;20008;-71
2021/01/30 10:13:11;;;;;;;;;;;5.40;98.10;;;;;;5074946;28;19928;-72
2021/01/30 10:15:38;;;;;;;;;;;5.50;98.10;;;;;;5075360;28;20027;-72
2021/01/30 10:18:06;;;;;;;;;;;5.50;97.80;;;;;;5074658;28;20356;-71
2021/01/30 10:20:41;;;;;;;;;;;5.50;97.90;;;;;;5075160;28;19925;-72
2021/01/30 10:23:08;;;;;;;;;;;5.50;97.50;;;;;;5074705;28;20408;-71
2021/01/30 10:25:34;;;;;;;;;;;5.60;97.20;;;;;;5075105;28;20008;-72
2021/01/30 10:28:06;;;;;;;;;;;5.60;97.30;;;;;;5074696;28;19924;-72
2021/01/30 10:30:32;;;;;;;;;;;5.60;97.50;;;;;;5075057;28;20013;-72
2021/01/30 10:33:00;;;;;;;;;;;5.60;97.50;;;;;;5074733;28;20003;-72
2021/01/30 10:35:27;;;;;;;;;;;5.70;97.30;;;;;;5074960;28;20065;-72
2021/01/30 10:37:55;;;;;;;;;;;5.70;97.20;;;;;;5074949;28;20319;-72
2021/01/30 10:40:31;;;;;;;;;;;5.70;97.10;;;;;;5074421;28;19971;-72
2021/01/30 10:42:58;;;;;;;;;;;5.70;97.10;;;;;;5075011;28;19925;-71
2021/01/30 10:45:29;;;;;;;;;;;5.70;96.70;;;;;;5074648;28;20019;-71
2021/01/30 10:48:01;;;;;;;;;;;5.70;96.60;;;;;;5074813;28;19934;-71
2021/01/30 10:50:30;;;;;;;;;;;5.70;96.30;;;;;;5074470;28;20692;-71
2021/01/30 10:53:11;;;;;;;;;;;5.70;96.10;;;;;;5074725;28;20057;-71
2021/01/30 10:55:41;;;;;;;;;;;5.80;96.00;;;;;;5074752;28;20019;-71
2021/01/30 10:58:11;;;;;;;;;;;5.70;96.10;;;;;;5074142;28;19978;-71
2021/01/30 11:00:38;;;;;;;;;;;5.70;96.10;;;;;;5074696;28;19928;-71
2021/01/30 11:03:19;;;;;;;;;;;5.80;96.20;;;;;;5074027;28;19932;-71
2021/01/30 11:05:45;;;;;;;;;;;5.80;96.30;;;;;;5073817;28;20406;-71
2021/01/30 11:08:11;;;;;;;;;;;5.70;96.20;;;;;;5074343;28;19924;-71
2021/01/30 11:10:40;;;;;;;;;;;5.80;96.10;;;;;;5074368;28;19999;-71
2021/01/30 11:13:08;;;;;;;;;;;5.80;95.80;;;;;;5073721;28;20011;-71
2021/01/30 11:15:35;;;;;;;;;;;5.70;95.40;;;;;;5072466;28;19997;-71
2021/01/30 11:18:12;;;;;;;;;;;5.70;95.10;;;;;;5073732;28;19924;-71
2021/01/30 11:20:40;;;;;;;;;;;5.70;95.10;;;;;;5072419;28;20359;-71
2021/01/30 11:23:06;;;;;;;;;;;5.80;95.20;;;;;;5073465;28;19954;-71
2021/01/30 11:25:35;;;;;;;;;;;5.80;95.30;;;;;;5074091;28;19928;-71
2021/01/30 11:28:01;;;;;;;;;;;5.80;95.10;;;;;;5073442;28;19928;-71
2021/01/30 11:30:28;;;;;;;;;;;5.90;94.90;;;;;;5073273;28;19967;-71
2021/01/30 11:32:55;;;;;;;;;;;5.80;94.70;;;;;;5073552;28;20011;-71
2021/01/30 11:35:24;;;;;;;;;;;5.90;94.50;;;;;;5073652;28;20065;-72
2021/01/30 11:37:52;;;;;;;;;;;5.90;94.10;;;;;;5073376;28;19925;-71
2021/01/30 11:40:18;;;;;;;;;;;5.90;94.00;;;;;;5073787;28;19924;-71
2021/01/30 11:42:44;;;;;;;;;;;6.00;93.70;;;;;;5073568;28;19936;-71
2021/01/30 11:45:11;;;;;;;;;;;5.90;93.50;;;;;;5073132;28;20032;-71
2021/01/30 11:47:38;;;;;;;;;;;5.90;93.50;;;;;;5073609;28;20024;-71
2021/01/30 11:50:05;;;;;;;;;;;5.90;93.20;;;;;;5073108;28;20027;-71
2021/01/30 11:52:31;;;;;;;;;;;5.90;93.00;;;;;;5073650;28;20003;-71
2021/01/30 11:55:03;;;;;;;;;;;5.80;93.10;;;;;;5072983;28;19935;-71
2021/01/30 11:57:29;;;;;;;;;;;5.80;93.20;;;;;;5073348;28;20340;-71
2021/01/30 11:59:56;;;;;;;;;;;5.80;93.40;;;;;;5073023;28;20031;-71
2021/01/30 12:02:27;;;;;;;;;;;5.80;93.50;;;;;;5073268;28;19924;-72
2021/01/30 12:04:53;;;;;;;;;;;5.80;93.50;;;;;;5072935;28;19999;-72
2021/01/30 12:07:19;;;;;;;;;;;5.80;93.50;;;;;;5073074;28;20023;-72
2021/01/30 12:09:45;;;;;;;;;;;5.80;93.60;;;;;;5073142;28;20023;-71
2021/01/30 12:12:12;;;;;;;;;;;5.80;93.70;;;;;;5072653;28;20011;-71
2021/01/30 12:14:39;;;;;;;;;;;5.90;93.50;;;;;;5073298;28;20081;-72
2021/01/30 12:17:05;;;;;;;;;;;5.90;93.70;;;;;;5072618;28;20050;-72
2021/01/30 12:19:31;;;;;;;;;;;5.90;93.60;;;;;;5073085;28;20019;-72
2021/01/30 12:21:57;;;;;;;;;;;6.00;93.60;;;;;;5072466;28;19924;-71
2021/01/30 12:24:24;;;;;;;;;;;6.00;93.70;;;;;;5073150;28;20015;-72
2021/01/30 12:26:51;;;;;;;;;;;6.10;93.70;;;;;;5072408;28;20323;-72
2021/01/30 12:29:18;;;;;;;;;;;6.00;93.60;;;;;;5073079;28;20010;-72
2021/01/30 12:31:44;;;;;;;;;;;6.00;93.30;;;;;;5072794;28;19924;-72
2021/01/30 12:34:10;;;;;;;;;;;6.00;92.90;;;;;;5072695;28;19943;-72
2021/01/30 12:36:36;;;;;;;;;;;6.00;92.60;;;;;;5072825;28;20323;-72
2021/01/30 12:39:03;;;;;;;;;;;5.90;92.50;;;;;;5072418;28;19935;-72
2021/01/30 12:41:29;;;;;;;;;;;5.90;92.50;;;;;;5072801;28;19924;-72
2021/01/30 12:43:55;;;;;;;;;;;5.90;92.50;;;;;;5072371;28;20011;-71
2021/01/30 12:46:22;;;;;;;;;;;5.90;92.70;;;;;;5072566;28;20015;-71
2021/01/30 12:48:49;;;;;;;;;;;5.90;92.50;;;;;;5072804;28;19963;-71
2021/01/30 12:51:16;;;;;;;;;;;5.90;92.70;;;;;;5071916;28;19928;-71
2021/01/30 12:53:42;;;;;;;;;;;5.90;92.70;;;;;;5072823;28;19946;-71
2021/01/30 12:56:08;;;;;;;;;;;6.00;92.60;;;;;;5072330;28;20017;-71
2021/01/30 12:58:36;;;;;;;;;;;6.00;92.30;;;;;;5072662;28;20011;-71
2021/01/30 13:01:02;;;;;;;;;;;6.00;92.20;;;;;;5072300;28;19936;-71
2021/01/30 13:03:49;;;;;;;;;;;;;;;;;;;;;
2021/01/30 13:06:18;;;;;;;;;;;6.00;91.50;;;;;;5066649;28;20374;-71
2021/01/30 13:08:44;;;;;;;;;;;6.00;91.40;;;;;;5065027;28;19933;-71
2021/01/30 13:11:10;;;;;;;;;;;5.90;91.30;;;;;;5052195;28;20011;-71
2021/01/30 13:13:37;;;;;;;;;;;5.90;91.30;;;;;;5052506;28;20012;-71
2021/01/30 13:16:03;;;;;;;;;;;5.90;91.40;;;;;;5052071;28;20019;-71
2021/01/30 13:18:30;;;;;;;;;;;5.90;91.40;;;;;;5052641;28;20004;-70
2021/01/30 13:20:57;;;;;;;;;;;5.90;91.40;;;;;;5052072;28;19956;-70
2021/01/30 13:23:23;;;;;;;;;;;5.90;90.60;;;;;;5052510;28;20062;-70
2021/01/30 13:25:49;;;;;;;;;;;5.90;90.60;;;;;;5052490;28;20316;-71
2021/01/30 13:28:15;;;;;;;;;;;5.80;90.80;;;;;;5051892;28;20260;-71
2021/01/30 13:30:41;;;;;;;;;;;5.80;90.90;;;;;;5052372;28;20007;-70
2021/01/30 13:33:08;;;;;;;;;;;5.70;90.90;;;;;;5051936;28;20004;-70
2021/01/30 13:35:35;;;;;;;;;;;5.70;91.00;;;;;;5052010;28;20351;-70
2021/01/30 13:38:01;;;;;;;;;;;5.70;91.20;;;;;;5051919;28;19978;-71
2021/01/30 13:40:28;;;;;;;;;;;5.70;91.40;;;;;;5052222;28;20016;-70
2021/01/30 13:42:54;;;;;;;;;;;5.60;91.50;;;;;;5052209;28;19925;-70
2021/01/30 13:45:23;;;;;;;;;;;5.70;91.70;;;;;;5052055;28;20015;-71
2021/01/30 13:47:49;;;;;;;;;;;5.70;91.60;;;;;;5062704;28;19999;-71
2021/01/30 13:50:16;;;;;;;;;;;5.70;91.40;;;;;;5071330;28;20122;-71
2021/01/30 13:52:43;;;;;;;;;;;5.80;91.40;;;;;;5073525;28;20015;-71
2021/01/30 13:55:10;;;;;;;;;;;5.80;91.30;;;;;;5074928;28;20026;-71
2021/01/30 13:57:36;;;;;;;;;;;5.90;91.30;;;;;;5075490;28;19954;-71
2021/01/30 14:00:04;;;;;;;;;;;5.90;91.00;;;;;;5075086;28;20004;-71
2021/01/30 14:02:30;;;;;;;;;;;5.90;91.00;;;;;;5075200;28;20015;-71
2021/01/30 14:04:56;;;;;;;;;;;5.90;91.10;;;;;;5075686;28;20074;-71
2021/01/30 14:07:22;;;;;;;;;;;6.00;90.80;;;;;;5067868;28;19925;-71
2021/01/30 14:09:49;;;;;;;;;;;6.00;90.70;;;;;;5074188;28;20009;-71
2021/01/30 14:12:15;;;;;;;;;;;6.00;90.60;;;;;;5074157;28;20316;-71
2021/01/30 14:14:48;;;;;;;;;;;5.90;90.50;;;;;;5075416;28;20069;-71
2021/01/30 14:17:14;;;;;;;;;;;6.00;90.60;;;;;;5067414;28;19925;-71
2021/01/30 14:19:40;;;;;;;;;;;5.90;90.10;;;;;;5073968;28;20321;-71
2021/01/30 14:22:07;;;;;;;;;;;5.90;90.00;;;;;;5069200;28;19942;-72
2021/01/30 14:24:33;;;;;;;;;;;5.80;90.00;;;;;;5064596;28;20012;-71
2021/01/30 14:27:00;;;;;;;;;;;5.80;90.00;;;;;;5068849;28;20142;-71
2021/01/30 14:29:26;;;;;;;;;;;5.80;90.30;;;;;;5065670;28;19925;-70
2021/01/30 14:31:57;;;;;;;;;;;5.80;90.50;;;;;;5074568;28;19962;-70
2021/01/30 14:34:23;;;;;;;;;;;5.70;90.60;;;;;;5074661;28;20027;-70
2021/01/30 14:36:49;;;;;;;;;;;5.70;90.70;;;;;;5074352;28;20370;-70
2021/01/30 14:39:15;;;;;;;;;;;5.70;90.50;;;;;;5074314;28;20015;-70
2021/01/30 14:41:41;;;;;;;;;;;5.70;90.60;;;;;;5074796;28;20035;-70